sensor_id;sensor_type;location;lat;lon;timestamp;temperature;humidity
18777;DHT22;9517;51.174;4.160;2023-04-01T00:01:24;9.80;99.90
18777;DHT22;9517;51.174;4.160;2023-04-01T00:03:51;9.70;99.90
18777;DHT22;9517;51.174;4.160;2023-04-01T00:06:19;9.70;99.90
18777;DHT22;9517;51.174;4.160;2023-04-01T00:08:46;9.70;99.90
18777;DHT22;9517;51.174;4.160;2023-04-01T00:11:16;9.70;99.90
18777;DHT22;9517;51.174;4.160;2023-04-01T00:13:44;9.70;99.90
18777;DHT22;9517;51.174;4.160;2023-04-01T00:16:12;9.80;99.90
18777;DHT22;9517;51.174;4.160;2023-04-01T00:18:39;9.80;99.90
18777;DHT22;9517;51.174;4.160;2023-04-01T00:21:07;9.80;99.90
18777;DHT22;9517;51.174;4.160;2023-04-01T00:23:34;9.80;99.90
18777;DHT22;9517;51.174;4.160;2023-04-01T00:26:02;9.80;99.90
18777;DHT22;9517;51.174;4.160;2023-04-01T00:28:34;9.80;99.90
18777;DHT22;9517;51.174;4.160;2023-04-01T00:31:04;9.80;99.90
18777;DHT22;9517;51.174;4.160;2023-04-01T00:33:32;9.80;99.90
18777;DHT22;9517;51.174;4.160;2023-04-01T00:36:06;9.80;99.90
18777;DHT22;9517;51.174;4.160;2023-04-01T00:38:34;9.70;99.90
18777;DHT22;9517;51.174;4.160;2023-04-01T00:41:01;9.80;99.90
18777;DHT22;9517;51.174;4.160;2023-04-01T00:43:28;9.80;99.90
18777;DHT22;9517;51.174;4.160;2023-04-01T00:45:57;9.80;99.90
18777;DHT22;9517;51.174;4.160;2023-04-01T00:48:27;9.80;99.90
18777;DHT22;9517;51.174;4.160;2023-04-01T00:50:59;9.80;99.90
18777;DHT22;9517;51.174;4.160;2023-04-01T00:53:28;9.80;99.90
18777;DHT22;9517;51.174;4.160;2023-04-01T00:56:00;9.80;99.90
18777;DHT22;9517;51.174;4.160;2023-04-01T00:58:31;9.80;99.90
18777;DHT22;9517;51.174;4.160;2023-04-01T01:01:01;9.80;99.90
18777;DHT22;9517;51.174;4.160;2023-04-01T01:03:28;9.80;99.90
18777;DHT22;9517;51.174;4.160;2023-04-01T01:06:14;9.70;99.90
18777;DHT22;9517;51.174;4.160;2023-04-01T01:08:58;9.70;99.90
18777;DHT22;9517;51.174;4.160;2023-04-01T01:11:33;9.70;99.90
18777;DHT22;9517;51.174;4.160;2023-04-01T01:14:07;9.70;99.90
18777;DHT22;9517;51.174;4.160;2023-04-01T01:16:42;9.70;99.90
18777;DHT22;9517;51.174;4.160;2023-04-01T01:19:31;9.60;99.90
18777;DHT22;9517;51.174;4.160;2023-04-01T01:22:29;9.60;99.90
18777;DHT22;9517;51.174;4.160;2023-04-01T01:25:18;9.50;99.90
18777;DHT22;9517;51.174;4.160;2023-04-01T01:27:56;9.50;99.90
18777;DHT22;9517;51.174;4.160;2023-04-01T01:30:42;9.50;99.90
18777;DHT22;9517;51.174;4.160;2023-04-01T01:33:24;9.50;99.90
18777;DHT22;9517;51.174;4.160;2023-04-01T01:35:58;9.50;99.90
18777;DHT22;9517;51.174;4.160;2023-04-01T01:38:28;9.50;99.90
18777;DHT22;9517;51.174;4.160;2023-04-01T01:40:58;9.50;99.90
18777;DHT22;9517;51.174;4.160;2023-04-01T01:43:30;9.50;99.90
18777;DHT22;9517;51.174;4.160;2023-04-01T01:46:00;9.50;99.90
18777;DHT22;9517;51.174;4.160;2023-04-01T01:48:29;9.50;99.90
18777;DHT22;9517;51.174;4.160;2023-04-01T01:50:59;9.50;99.90
18777;DHT22;9517;51.174;4.160;2023-04-01T01:53:26;9.50;99.90
18777;DHT22;9517;51.174;4.160;2023-04-01T01:55:53;9.50;99.90
18777;DHT22;9517;51.174;4.160;2023-04-01T01:58:24;9.40;99.90
18777;DHT22;9517;51.174;4.160;2023-04-01T02:00:54;9.50;99.90
18777;DHT22;9517;51.174;4.160;2023-04-01T02:03:24;9.50;99.90
18777;DHT22;9517;51.174;4.160;2023-04-01T02:05:56;9.50;99.90
18777;DHT22;9517;51.174;4.160;2023-04-01T02:08:27;9.50;99.90
18777;DHT22;9517;51.174;4.160;2023-04-01T02:11:00;9.40;99.90
18777;DHT22;9517;51.174;4.160;2023-04-01T02:13:31;9.40;99.90
18777;DHT22;9517;51.174;4.160;2023-04-01T02:16:05;9.40;99.90
18777;DHT22;9517;51.174;4.160;2023-04-01T02:18:35;9.40;99.90
18777;DHT22;9517;51.174;4.160;2023-04-01T02:21:05;9.30;99.90
18777;DHT22;9517;51.174;4.160;2023-04-01T02:23:34;9.30;99.90
18777;DHT22;9517;51.174;4.160;2023-04-01T02:26:04;9.40;99.90
18777;DHT22;9517;51.174;4.160;2023-04-01T02:28:33;9.40;99.90
18777;DHT22;9517;51.174;4.160;2023-04-01T02:31:01;9.30;99.90
18777;DHT22;9517;51.174;4.160;2023-04-01T02:33:29;9.30;99.90
18777;DHT22;9517;51.174;4.160;2023-04-01T02:35:57;9.30;99.90
18777;DHT22;9517;51.174;4.160;2023-04-01T02:38:25;9.20;99.90
18777;DHT22;9517;51.174;4.160;2023-04-01T02:40:59;9.20;99.90
18777;DHT22;9517;51.174;4.160;2023-04-01T02:43:27;9.20;99.90
18777;DHT22;9517;51.174;4.160;2023-04-01T02:45:54;9.20;99.90
18777;DHT22;9517;51.174;4.160;2023-04-01T02:48:21;9.20;99.90
18777;DHT22;9517;51.174;4.160;2023-04-01T02:50:48;9.20;99.90
18777;DHT22;9517;51.174;4.160;2023-04-01T02:53:16;9.20;99.90
18777;DHT22;9517;51.174;4.160;2023-04-01T02:55:43;9.10;99.90
18777;DHT22;9517;51.174;4.160;2023-04-01T02:58:12;9.10;99.90
18777;DHT22;9517;51.174;4.160;2023-04-01T03:00:39;9.20;99.90
18777;DHT22;9517;51.174;4.160;2023-04-01T03:03:07;9.20;99.90
18777;DHT22;9517;51.174;4.160;2023-04-01T03:05:35;9.20;99.90
18777;DHT22;9517;51.174;4.160;2023-04-01T03:08:02;9.20;99.90
18777;DHT22;9517;51.174;4.160;2023-04-01T03:10:29;9.20;99.90
18777;DHT22;9517;51.174;4.160;2023-04-01T03:12:56;9.20;99.90
18777;DHT22;9517;51.174;4.160;2023-04-01T03:15:25;9.20;99.90
18777;DHT22;9517;51.174;4.160;2023-04-01T03:17:52;9.20;99.90
18777;DHT22;9517;51.174;4.160;2023-04-01T03:20:19;9.10;99.90
18777;DHT22;9517;51.174;4.160;2023-04-01T03:22:46;9.10;99.90
18777;DHT22;9517;51.174;4.160;2023-04-01T03:25:13;9.10;99.90
18777;DHT22;9517;51.174;4.160;2023-04-01T03:27:40;9.10;99.90
18777;DHT22;9517;51.174;4.160;2023-04-01T03:30:08;9.10;99.90
18777;DHT22;9517;51.174;4.160;2023-04-01T03:32:37;9.10;99.90
18777;DHT22;9517;51.174;4.160;2023-04-01T03:35:05;9.10;99.90
18777;DHT22;9517;51.174;4.160;2023-04-01T03:37:32;9.10;99.90
18777;DHT22;9517;51.174;4.160;2023-04-01T03:39:59;9.10;99.90
18777;DHT22;9517;51.174;4.160;2023-04-01T03:42:26;9.10;99.90
18777;DHT22;9517;51.174;4.160;2023-04-01T03:44:53;9.10;99.90
18777;DHT22;9517;51.174;4.160;2023-04-01T03:47:20;9.10;99.90
18777;DHT22;9517;51.174;4.160;2023-04-01T03:49:49;9.10;99.90
18777;DHT22;9517;51.174;4.160;2023-04-01T03:52:16;9.10;99.90
18777;DHT22;9517;51.174;4.160;2023-04-01T03:54:43;9.10;99.90
18777;DHT22;9517;51.174;4.160;2023-04-01T03:57:10;9.10;99.90
18777;DHT22;9517;51.174;4.160;2023-04-01T03:59:37;9.10;99.90
18777;DHT22;9517;51.174;4.160;2023-04-01T04:02:04;9.10;99.90
18777;DHT22;9517;51.174;4.160;2023-04-01T04:04:31;9.10;99.90
18777;DHT22;9517;51.174;4.160;2023-04-01T04:07:00;9.10;99.90
18777;DHT22;9517;51.174;4.160;2023-04-01T04:09:27;9.10;99.90
18777;DHT22;9517;51.174;4.160;2023-04-01T04:11:54;9.10;99.90
18777;DHT22;9517;51.174;4.160;2023-04-01T04:14:22;9.10;99.90
18777;DHT22;9517;51.174;4.160;2023-04-01T04:16:49;9.10;99.90
18777;DHT22;9517;51.174;4.160;2023-04-01T04:19:16;9.10;99.90
18777;DHT22;9517;51.174;4.160;2023-04-01T04:21:43;9.10;99.90
18777;DHT22;9517;51.174;4.160;2023-04-01T04:24:11;9.10;99.90
18777;DHT22;9517;51.174;4.160;2023-04-01T04:26:39;9.10;99.90
18777;DHT22;9517;51.174;4.160;2023-04-01T04:29:06;9.10;99.90
18777;DHT22;9517;51.174;4.160;2023-04-01T04:31:33;9.10;99.90
18777;DHT22;9517;51.174;4.160;2023-04-01T04:34:00;9.10;99.90
18777;DHT22;9517;51.174;4.160;2023-04-01T04:36:27;9.10;99.90
18777;DHT22;9517;51.174;4.160;2023-04-01T04:38:54;9.10;99.90
18777;DHT22;9517;51.174;4.160;2023-04-01T04:41:25;9.10;99.90
18777;DHT22;9517;51.174;4.160;2023-04-01T04:43:53;9.10;99.90
18777;DHT22;9517;51.174;4.160;2023-04-01T04:46:21;9.00;99.90
18777;DHT22;9517;51.174;4.160;2023-04-01T04:48:48;9.00;99.90
18777;DHT22;9517;51.174;4.160;2023-04-01T04:51:17;9.00;99.90
18777;DHT22;9517;51.174;4.160;2023-04-01T04:53:44;9.00;99.90
18777;DHT22;9517;51.174;4.160;2023-04-01T04:56:12;9.00;99.90
18777;DHT22;9517;51.174;4.160;2023-04-01T04:58:40;8.90;99.90
18777;DHT22;9517;51.174;4.160;2023-04-01T05:01:09;8.90;99.90
18777;DHT22;9517;51.174;4.160;2023-04-01T05:03:37;8.90;99.90
18777;DHT22;9517;51.174;4.160;2023-04-01T05:06:06;8.90;99.90
18777;DHT22;9517;51.174;4.160;2023-04-01T05:08:33;8.90;99.90
18777;DHT22;9517;51.174;4.160;2023-04-01T05:11:01;8.90;99.90
18777;DHT22;9517;51.174;4.160;2023-04-01T05:13:28;8.90;99.90
18777;DHT22;9517;51.174;4.160;2023-04-01T05:15:57;8.90;99.90
18777;DHT22;9517;51.174;4.160;2023-04-01T05:18:24;8.90;99.90
18777;DHT22;9517;51.174;4.160;2023-04-01T05:20:52;8.90;99.90
18777;DHT22;9517;51.174;4.160;2023-04-01T05:23:21;8.90;99.90
18777;DHT22;9517;51.174;4.160;2023-04-01T05:25:48;8.90;99.90
18777;DHT22;9517;51.174;4.160;2023-04-01T05:28:15;8.90;99.90
18777;DHT22;9517;51.174;4.160;2023-04-01T05:30:43;8.90;99.90
18777;DHT22;9517;51.174;4.160;2023-04-01T05:33:12;8.90;99.90
18777;DHT22;9517;51.174;4.160;2023-04-01T05:35:39;8.80;99.90
18777;DHT22;9517;51.174;4.160;2023-04-01T05:38:07;8.80;99.90
18777;DHT22;9517;51.174;4.160;2023-04-01T05:40:34;8.80;99.90
18777;DHT22;9517;51.174;4.160;2023-04-01T05:43:01;8.80;99.90
18777;DHT22;9517;51.174;4.160;2023-04-01T05:45:28;8.80;99.90
18777;DHT22;9517;51.174;4.160;2023-04-01T05:47:55;8.90;99.90
18777;DHT22;9517;51.174;4.160;2023-04-01T05:50:24;8.80;99.90
18777;DHT22;9517;51.174;4.160;2023-04-01T05:52:51;8.80;99.90
18777;DHT22;9517;51.174;4.160;2023-04-01T05:55:18;8.80;99.90
18777;DHT22;9517;51.174;4.160;2023-04-01T05:57:45;8.80;99.90
18777;DHT22;9517;51.174;4.160;2023-04-01T06:00:14;8.80;99.90
18777;DHT22;9517;51.174;4.160;2023-04-01T06:02:42;8.80;99.90
18777;DHT22;9517;51.174;4.160;2023-04-01T06:05:15;8.80;99.90
18777;DHT22;9517;51.174;4.160;2023-04-01T06:07:45;8.80;99.90
18777;DHT22;9517;51.174;4.160;2023-04-01T06:10:14;8.70;99.90
18777;DHT22;9517;51.174;4.160;2023-04-01T06:12:54;8.80;99.90
18777;DHT22;9517;51.174;4.160;2023-04-01T06:15:33;8.80;99.90
18777;DHT22;9517;51.174;4.160;2023-04-01T06:18:29;8.80;99.90
18777;DHT22;9517;51.174;4.160;2023-04-01T06:21:07;8.70;99.90
18777;DHT22;9517;51.174;4.160;2023-04-01T06:23:51;8.70;99.90
18777;DHT22;9517;51.174;4.160;2023-04-01T06:26:28;8.70;99.90
18777;DHT22;9517;51.174;4.160;2023-04-01T06:32:22;8.80;99.90
18777;DHT22;9517;51.174;4.160;2023-04-01T06:35:20;8.80;99.90
18777;DHT22;9517;51.174;4.160;2023-04-01T06:38:19;8.80;99.90
18777;DHT22;9517;51.174;4.160;2023-04-01T06:41:22;8.80;99.90
18777;DHT22;9517;51.174;4.160;2023-04-01T06:43:59;8.80;99.90
18777;DHT22;9517;51.174;4.160;2023-04-01T06:46:39;8.80;99.90
18777;DHT22;9517;51.174;4.160;2023-04-01T06:49:31;8.80;99.90
18777;DHT22;9517;51.174;4.160;2023-04-01T06:52:06;8.80;99.90
18777;DHT22;9517;51.174;4.160;2023-04-01T06:54:43;8.80;99.90
18777;DHT22;9517;51.174;4.160;2023-04-01T06:57:20;8.90;99.90
18777;DHT22;9517;51.174;4.160;2023-04-01T06:59:49;8.90;99.90
18777;DHT22;9517;51.174;4.160;2023-04-01T07:02:24;8.90;99.90
18777;DHT22;9517;51.174;4.160;2023-04-01T07:04:54;9.00;99.90
18777;DHT22;9517;51.174;4.160;2023-04-01T07:07:29;9.00;99.90
18777;DHT22;9517;51.174;4.160;2023-04-01T07:09:59;9.00;99.90
18777;DHT22;9517;51.174;4.160;2023-04-01T07:12:37;9.00;99.90
18777;DHT22;9517;51.174;4.160;2023-04-01T07:15:15;9.00;99.90
18777;DHT22;9517;51.174;4.160;2023-04-01T07:17:45;9.00;99.90
18777;DHT22;9517;51.174;4.160;2023-04-01T07:20:18;9.10;99.90
18777;DHT22;9517;51.174;4.160;2023-04-01T07:22:48;9.10;99.90
18777;DHT22;9517;51.174;4.160;2023-04-01T07:25:17;9.10;99.90
18777;DHT22;9517;51.174;4.160;2023-04-01T07:27:47;9.10;99.90
18777;DHT22;9517;51.174;4.160;2023-04-01T07:30:15;9.10;99.90
18777;DHT22;9517;51.174;4.160;2023-04-01T07:32:47;9.20;99.90
18777;DHT22;9517;51.174;4.160;2023-04-01T07:35:22;9.10;99.90
18777;DHT22;9517;51.174;4.160;2023-04-01T07:38:07;9.10;99.90
18777;DHT22;9517;51.174;4.160;2023-04-01T07:40:42;9.10;99.90
18777;DHT22;9517;51.174;4.160;2023-04-01T07:43:27;9.20;99.90
18777;DHT22;9517;51.174;4.160;2023-04-01T07:46:03;9.20;99.90
18777;DHT22;9517;51.174;4.160;2023-04-01T07:48:39;9.20;99.90
18777;DHT22;9517;51.174;4.160;2023-04-01T07:51:13;9.30;99.90
18777;DHT22;9517;51.174;4.160;2023-04-01T07:53:48;9.30;99.90
18777;DHT22;9517;51.174;4.160;2023-04-01T07:56:25;9.20;99.90
18777;DHT22;9517;51.174;4.160;2023-04-01T07:59:01;9.20;99.90
18777;DHT22;9517;51.174;4.160;2023-04-01T08:01:39;9.20;99.90
18777;DHT22;9517;51.174;4.160;2023-04-01T08:04:25;9.30;99.90
18777;DHT22;9517;51.174;4.160;2023-04-01T08:07:02;9.20;99.90
18777;DHT22;9517;51.174;4.160;2023-04-01T08:09:38;9.30;99.90
18777;DHT22;9517;51.174;4.160;2023-04-01T08:12:17;9.30;99.90
18777;DHT22;9517;51.174;4.160;2023-04-01T08:14:55;9.30;99.90
18777;DHT22;9517;51.174;4.160;2023-04-01T08:17:30;9.20;99.90
18777;DHT22;9517;51.174;4.160;2023-04-01T08:20:11;9.20;99.90
18777;DHT22;9517;51.174;4.160;2023-04-01T08:22:42;9.30;99.90
18777;DHT22;9517;51.174;4.160;2023-04-01T08:25:16;9.30;99.90
18777;DHT22;9517;51.174;4.160;2023-04-01T08:27:46;9.20;99.90
18777;DHT22;9517;51.174;4.160;2023-04-01T08:30:21;9.30;99.90
18777;DHT22;9517;51.174;4.160;2023-04-01T08:32:53;9.40;99.90
18777;DHT22;9517;51.174;4.160;2023-04-01T08:35:27;9.40;99.90
18777;DHT22;9517;51.174;4.160;2023-04-01T08:38:00;9.40;99.90
18777;DHT22;9517;51.174;4.160;2023-04-01T08:40:58;9.30;99.90
18777;DHT22;9517;51.174;4.160;2023-04-01T08:43:41;9.30;99.90
18777;DHT22;9517;51.174;4.160;2023-04-01T08:49:27;9.40;99.90
18777;DHT22;9517;51.174;4.160;2023-04-01T08:52:26;9.50;99.90
18777;DHT22;9517;51.174;4.160;2023-04-01T08:55:30;9.40;99.90
18777;DHT22;9517;51.174;4.160;2023-04-01T08:58:29;9.40;99.90
18777;DHT22;9517;51.174;4.160;2023-04-01T09:01:13;9.50;99.90
18777;DHT22;9517;51.174;4.160;2023-04-01T09:06:37;9.40;99.90
18777;DHT22;9517;51.174;4.160;2023-04-01T09:09:35;9.40;99.90
18777;DHT22;9517;51.174;4.160;2023-04-01T09:15:32;9.40;99.90
18777;DHT22;9517;51.174;4.160;2023-04-01T09:18:15;9.30;99.90
18777;DHT22;9517;51.174;4.160;2023-04-01T09:20:58;9.40;99.90
18777;DHT22;9517;51.174;4.160;2023-04-01T09:23:54;9.50;99.90
18777;DHT22;9517;51.174;4.160;2023-04-01T09:26:44;9.50;99.90
18777;DHT22;9517;51.174;4.160;2023-04-01T09:29:29;9.50;99.90
18777;DHT22;9517;51.174;4.160;2023-04-01T09:32:16;9.60;99.90
18777;DHT22;9517;51.174;4.160;2023-04-01T09:34:53;9.60;99.90
18777;DHT22;9517;51.174;4.160;2023-04-01T09:37:34;9.60;99.90
18777;DHT22;9517;51.174;4.160;2023-04-01T09:40:17;9.60;99.90
18777;DHT22;9517;51.174;4.160;2023-04-01T09:42:49;9.70;99.90
18777;DHT22;9517;51.174;4.160;2023-04-01T09:45:32;9.70;99.90
18777;DHT22;9517;51.174;4.160;2023-04-01T09:48:14;9.70;99.90
18777;DHT22;9517;51.174;4.160;2023-04-01T09:50:50;9.70;99.90
18777;DHT22;9517;51.174;4.160;2023-04-01T09:53:35;9.70;99.90
18777;DHT22;9517;51.174;4.160;2023-04-01T10:02:36;9.60;99.90
18777;DHT22;9517;51.174;4.160;2023-04-01T10:17:54;9.50;99.90
18777;DHT22;9517;51.174;4.160;2023-04-01T10:23:35;9.50;99.90
18777;DHT22;9517;51.174;4.160;2023-04-01T10:26:26;9.40;99.90
18777;DHT22;9517;51.174;4.160;2023-04-01T10:29:13;9.50;99.90
18777;DHT22;9517;51.174;4.160;2023-04-01T10:32:30;9.40;99.90
18777;DHT22;9517;51.174;4.160;2023-04-01T10:35:22;9.40;99.90
18777;DHT22;9517;51.174;4.160;2023-04-01T10:38:25;9.30;99.90
18777;DHT22;9517;51.174;4.160;2023-04-01T10:41:38;9.50;99.90
18777;DHT22;9517;51.174;4.160;2023-04-01T10:50:31;9.40;99.90
18777;DHT22;9517;51.174;4.160;2023-04-01T10:56:28;9.40;99.90
18777;DHT22;9517;51.174;4.160;2023-04-01T11:05:39;9.50;99.90
18777;DHT22;9517;51.174;4.160;2023-04-01T11:11:37;9.70;99.90
18777;DHT22;9517;51.174;4.160;2023-04-01T11:17:26;9.70;99.90
18777;DHT22;9517;51.174;4.160;2023-04-01T11:20:26;9.70;99.90
18777;DHT22;9517;51.174;4.160;2023-04-01T11:23:08;9.70;99.90
18777;DHT22;9517;51.174;4.160;2023-04-01T11:25:56;9.80;99.90
18777;DHT22;9517;51.174;4.160;2023-04-01T11:31:55;9.70;99.90
18777;DHT22;9517;51.174;4.160;2023-04-01T11:34:43;9.70;99.90
18777;DHT22;9517;51.174;4.160;2023-04-01T11:37:29;9.60;99.90
18777;DHT22;9517;51.174;4.160;2023-04-01T11:40:08;9.60;99.90
18777;DHT22;9517;51.174;4.160;2023-04-01T11:42:43;9.60;99.90
18777;DHT22;9517;51.174;4.160;2023-04-01T11:45:20;9.60;99.90
18777;DHT22;9517;51.174;4.160;2023-04-01T11:48:11;9.60;99.90
18777;DHT22;9517;51.174;4.160;2023-04-01T11:50:51;9.60;99.90
18777;DHT22;9517;51.174;4.160;2023-04-01T11:53:29;9.70;99.90
18777;DHT22;9517;51.174;4.160;2023-04-01T11:56:09;9.80;99.90
18777;DHT22;9517;51.174;4.160;2023-04-01T11:58:58;9.70;99.90
18777;DHT22;9517;51.174;4.160;2023-04-01T12:01:36;9.70;99.90
18777;DHT22;9517;51.174;4.160;2023-04-01T12:04:23;9.60;99.90
18777;DHT22;9517;51.174;4.160;2023-04-01T12:07:02;9.60;99.90
18777;DHT22;9517;51.174;4.160;2023-04-01T12:09:36;9.70;99.90
18777;DHT22;9517;51.174;4.160;2023-04-01T12:12:14;9.80;99.90
18777;DHT22;9517;51.174;4.160;2023-04-01T12:14:50;9.70;99.90
18777;DHT22;9517;51.174;4.160;2023-04-01T12:17:29;9.90;99.90
18777;DHT22;9517;51.174;4.160;2023-04-01T12:20:09;9.80;99.90
18777;DHT22;9517;51.174;4.160;2023-04-01T12:22:51;9.70;99.90
18777;DHT22;9517;51.174;4.160;2023-04-01T12:25:29;9.80;99.90
18777;DHT22;9517;51.174;4.160;2023-04-01T12:28:10;9.90;99.90
18777;DHT22;9517;51.174;4.160;2023-04-01T12:30:53;9.90;99.90
18777;DHT22;9517;51.174;4.160;2023-04-01T12:33:41;10.00;99.90
18777;DHT22;9517;51.174;4.160;2023-04-01T12:36:26;10.00;99.90
18777;DHT22;9517;51.174;4.160;2023-04-01T12:39:17;9.90;99.90
18777;DHT22;9517;51.174;4.160;2023-04-01T12:41:54;10.00;99.90
18777;DHT22;9517;51.174;4.160;2023-04-01T12:44:50;9.80;99.90
18777;DHT22;9517;51.174;4.160;2023-04-01T12:47:43;9.70;99.90
18777;DHT22;9517;51.174;4.160;2023-04-01T12:50:23;9.60;99.90
18777;DHT22;9517;51.174;4.160;2023-04-01T12:53:05;9.60;99.90
18777;DHT22;9517;51.174;4.160;2023-04-01T12:55:39;9.60;99.90
18777;DHT22;9517;51.174;4.160;2023-04-01T12:58:54;9.50;99.90
18777;DHT22;9517;51.174;4.160;2023-04-01T13:02:00;9.60;99.90
18777;DHT22;9517;51.174;4.160;2023-04-01T13:08:00;9.70;99.90
18777;DHT22;9517;51.174;4.160;2023-04-01T13:10:42;9.60;99.90
18777;DHT22;9517;51.174;4.160;2023-04-01T13:13:34;9.60;99.90
18777;DHT22;9517;51.174;4.160;2023-04-01T13:16:08;9.70;99.90
18777;DHT22;9517;51.174;4.160;2023-04-01T13:18:46;9.80;99.90
18777;DHT22;9517;51.174;4.160;2023-04-01T13:21:21;9.90;99.90
18777;DHT22;9517;51.174;4.160;2023-04-01T13:24:00;10.00;99.90
18777;DHT22;9517;51.174;4.160;2023-04-01T13:26:32;10.00;99.90
18777;DHT22;9517;51.174;4.160;2023-04-01T13:29:06;9.90;99.90
18777;DHT22;9517;51.174;4.160;2023-04-01T13:31:42;9.90;99.90
18777;DHT22;9517;51.174;4.160;2023-04-01T13:34:29;9.90;99.90
18777;DHT22;9517;51.174;4.160;2023-04-01T13:37:10;9.80;99.90
18777;DHT22;9517;51.174;4.160;2023-04-01T13:40:02;9.80;99.90
18777;DHT22;9517;51.174;4.160;2023-04-01T13:42:41;9.90;99.90
18777;DHT22;9517;51.174;4.160;2023-04-01T13:45:14;10.00;99.90
18777;DHT22;9517;51.174;4.160;2023-04-01T13:51:12;10.00;99.90
18777;DHT22;9517;51.174;4.160;2023-04-01T13:53:59;10.10;99.90
18777;DHT22;9517;51.174;4.160;2023-04-01T13:56:42;10.00;99.90
18777;DHT22;9517;51.174;4.160;2023-04-01T13:59:46;10.10;99.90
18777;DHT22;9517;51.174;4.160;2023-04-01T14:02:36;10.10;99.90
18777;DHT22;9517;51.174;4.160;2023-04-01T14:05:55;10.00;99.90
18777;DHT22;9517;51.174;4.160;2023-04-01T14:08:36;10.10;99.90
18777;DHT22;9517;51.174;4.160;2023-04-01T14:11:16;10.00;99.90
18777;DHT22;9517;51.174;4.160;2023-04-01T14:13:56;9.90;99.90
18777;DHT22;9517;51.174;4.160;2023-04-01T14:16:48;10.20;99.90
18777;DHT22;9517;51.174;4.160;2023-04-01T14:19:29;10.20;99.90
18777;DHT22;9517;51.174;4.160;2023-04-01T14:22:05;10.10;99.90
18777;DHT22;9517;51.174;4.160;2023-04-01T14:25:12;10.20;99.90
18777;DHT22;9517;51.174;4.160;2023-04-01T14:27:50;10.20;99.90
18777;DHT22;9517;51.174;4.160;2023-04-01T14:30:35;10.10;99.90
18777;DHT22;9517;51.174;4.160;2023-04-01T14:33:21;10.00;99.90
18777;DHT22;9517;51.174;4.160;2023-04-01T14:36:01;9.80;99.90
18777;DHT22;9517;51.174;4.160;2023-04-01T14:38:47;9.70;99.90
18777;DHT22;9517;51.174;4.160;2023-04-01T14:41:21;9.80;99.90
18777;DHT22;9517;51.174;4.160;2023-04-01T14:44:18;9.90;99.90
18777;DHT22;9517;51.174;4.160;2023-04-01T14:50:06;9.80;99.90
18777;DHT22;9517;51.174;4.160;2023-04-01T14:52:38;9.80;99.90
18777;DHT22;9517;51.174;4.160;2023-04-01T14:55:27;9.90;99.90
18777;DHT22;9517;51.174;4.160;2023-04-01T14:57:59;9.70;99.90
18777;DHT22;9517;51.174;4.160;2023-04-01T15:00:27;9.70;99.90
18777;DHT22;9517;51.174;4.160;2023-04-01T15:03:11;9.70;99.90
18777;DHT22;9517;51.174;4.160;2023-04-01T15:05:49;9.70;99.90
18777;DHT22;9517;51.174;4.160;2023-04-01T15:08:21;9.60;99.90
18777;DHT22;9517;51.174;4.160;2023-04-01T15:11:13;9.70;99.90
18777;DHT22;9517;51.174;4.160;2023-04-01T15:16:45;9.60;99.90
18777;DHT22;9517;51.174;4.160;2023-04-01T15:19:24;9.60;99.90
18777;DHT22;9517;51.174;4.160;2023-04-01T15:22:15;9.60;99.90
18777;DHT22;9517;51.174;4.160;2023-04-01T15:25:00;9.50;99.90
18777;DHT22;9517;51.174;4.160;2023-04-01T15:27:39;9.50;99.90
18777;DHT22;9517;51.174;4.160;2023-04-01T15:30:21;9.40;99.90
18777;DHT22;9517;51.174;4.160;2023-04-01T15:33:04;9.50;99.90
18777;DHT22;9517;51.174;4.160;2023-04-01T15:35:41;9.50;99.90
18777;DHT22;9517;51.174;4.160;2023-04-01T15:38:22;9.40;99.90
18777;DHT22;9517;51.174;4.160;2023-04-01T15:40:57;9.40;99.90
18777;DHT22;9517;51.174;4.160;2023-04-01T15:43:35;9.30;99.90
18777;DHT22;9517;51.174;4.160;2023-04-01T15:46:31;9.30;99.90
18777;DHT22;9517;51.174;4.160;2023-04-01T15:49:05;9.20;99.90
18777;DHT22;9517;51.174;4.160;2023-04-01T15:51:47;9.30;99.90
18777;DHT22;9517;51.174;4.160;2023-04-01T15:54:38;9.40;99.90
18777;DHT22;9517;51.174;4.160;2023-04-01T15:57:20;9.30;99.90
18777;DHT22;9517;51.174;4.160;2023-04-01T16:00:11;9.30;99.90
18777;DHT22;9517;51.174;4.160;2023-04-01T16:02:46;9.20;99.90
18777;DHT22;9517;51.174;4.160;2023-04-01T16:05:31;9.20;99.90
18777;DHT22;9517;51.174;4.160;2023-04-01T16:08:13;9.20;99.90
18777;DHT22;9517;51.174;4.160;2023-04-01T16:11:03;9.20;99.90
18777;DHT22;9517;51.174;4.160;2023-04-01T16:13:46;9.20;99.90
18777;DHT22;9517;51.174;4.160;2023-04-01T16:16:26;9.20;99.90
18777;DHT22;9517;51.174;4.160;2023-04-01T16:19:09;9.30;99.90
18777;DHT22;9517;51.174;4.160;2023-04-01T16:21:43;9.30;99.90
18777;DHT22;9517;51.174;4.160;2023-04-01T16:24:20;9.30;99.90
18777;DHT22;9517;51.174;4.160;2023-04-01T16:26:54;9.30;99.90
18777;DHT22;9517;51.174;4.160;2023-04-01T16:29:32;9.30;99.90
18777;DHT22;9517;51.174;4.160;2023-04-01T16:35:20;9.30;99.90
18777;DHT22;9517;51.174;4.160;2023-04-01T16:37:52;9.20;99.90
18777;DHT22;9517;51.174;4.160;2023-04-01T16:40:25;9.40;99.90
18777;DHT22;9517;51.174;4.160;2023-04-01T16:43:11;9.40;99.90
18777;DHT22;9517;51.174;4.160;2023-04-01T16:45:43;9.50;99.90
18777;DHT22;9517;51.174;4.160;2023-04-01T16:48:15;9.40;99.90
18777;DHT22;9517;51.174;4.160;2023-04-01T16:50:51;9.50;99.90
18777;DHT22;9517;51.174;4.160;2023-04-01T16:53:25;9.50;99.90
18777;DHT22;9517;51.174;4.160;2023-04-01T16:56:04;9.50;99.90
18777;DHT22;9517;51.174;4.160;2023-04-01T16:58:37;9.60;99.90
18777;DHT22;9517;51.174;4.160;2023-04-01T17:01:10;9.60;99.90
18777;DHT22;9517;51.174;4.160;2023-04-01T17:03:42;9.50;99.90
18777;DHT22;9517;51.174;4.160;2023-04-01T17:06:19;9.50;99.90
18777;DHT22;9517;51.174;4.160;2023-04-01T17:09:12;9.40;99.90
18777;DHT22;9517;51.174;4.160;2023-04-01T17:11:46;9.50;99.90
18777;DHT22;9517;51.174;4.160;2023-04-01T17:14:23;9.50;99.90
18777;DHT22;9517;51.174;4.160;2023-04-01T17:17:17;9.50;99.90
18777;DHT22;9517;51.174;4.160;2023-04-01T17:22:52;9.50;99.90
18777;DHT22;9517;51.174;4.160;2023-04-01T17:25:32;9.50;99.90
18777;DHT22;9517;51.174;4.160;2023-04-01T17:28:09;9.50;99.90
18777;DHT22;9517;51.174;4.160;2023-04-01T17:30:45;9.50;99.90
18777;DHT22;9517;51.174;4.160;2023-04-01T17:36:19;9.40;99.90
18777;DHT22;9517;51.174;4.160;2023-04-01T17:41:51;9.40;99.90
18777;DHT22;9517;51.174;4.160;2023-04-01T17:44:32;9.30;99.90
18777;DHT22;9517;51.174;4.160;2023-04-01T17:47:24;9.20;99.90
18777;DHT22;9517;51.174;4.160;2023-04-01T17:50:02;9.20;99.90
18777;DHT22;9517;51.174;4.160;2023-04-01T17:52:37;9.10;99.90
18777;DHT22;9517;51.174;4.160;2023-04-01T17:55:30;9.10;99.90
18777;DHT22;9517;51.174;4.160;2023-04-01T17:58:03;9.00;99.90
18777;DHT22;9517;51.174;4.160;2023-04-01T18:00:36;9.10;99.90
18777;DHT22;9517;51.174;4.160;2023-04-01T18:03:16;9.20;99.90
18777;DHT22;9517;51.174;4.160;2023-04-01T18:05:56;9.20;99.90
18777;DHT22;9517;51.174;4.160;2023-04-01T18:08:45;9.00;99.90
18777;DHT22;9517;51.174;4.160;2023-04-01T18:11:24;9.00;99.90
18777;DHT22;9517;51.174;4.160;2023-04-01T18:14:13;9.00;99.90
18777;DHT22;9517;51.174;4.160;2023-04-01T18:16:52;8.90;99.90
18777;DHT22;9517;51.174;4.160;2023-04-01T18:19:32;9.00;99.90
18777;DHT22;9517;51.174;4.160;2023-04-01T18:22:15;8.90;99.90
18777;DHT22;9517;51.174;4.160;2023-04-01T18:24:47;8.90;99.90
18777;DHT22;9517;51.174;4.160;2023-04-01T18:27:23;8.90;99.90